sensor_id;sensor_type;location;lat;lon;timestamp;temperature;humidity
49821;DHT22;36893;52.520;13.450;2022-12-07T00:06:53;16.70;77.10
49821;DHT22;36893;52.520;13.450;2022-12-07T00:16:54;16.70;77.10
49821;DHT22;36893;52.520;13.450;2022-12-07T00:26:55;16.60;77.00
49821;DHT22;36893;52.520;13.450;2022-12-07T00:36:55;16.70;77.10
49821;DHT22;36893;52.520;13.450;2022-12-07T00:46:56;16.60;77.00
49821;DHT22;36893;52.520;13.450;2022-12-07T00:56:56;16.60;77.10
49821;DHT22;36893;52.520;13.450;2022-12-07T01:06:57;16.60;77.00
49821;DHT22;36893;52.520;13.450;2022-12-07T01:16:58;16.60;77.00
49821;DHT22;36893;52.520;13.450;2022-12-07T01:26:58;16.60;77.80
49821;DHT22;36893;52.520;13.450;2022-12-07T01:36:59;16.60;77.00
49821;DHT22;36893;52.520;13.450;2022-12-07T01:47:02;16.60;77.00
49821;DHT22;36893;52.520;13.450;2022-12-07T01:57:04;16.60;77.10
49821;DHT22;36893;52.520;13.450;2022-12-07T02:07:07;16.60;77.00
49821;DHT22;36893;52.520;13.450;2022-12-07T02:38:08;16.60;77.00
49821;DHT22;36893;52.520;13.450;2022-12-07T02:48:23;16.60;77.10
49821;DHT22;36893;52.520;13.450;2022-12-07T03:08:59;16.60;77.10
49821;DHT22;36893;52.520;13.450;2022-12-07T03:19:18;16.60;77.10
49821;DHT22;36893;52.520;13.450;2022-12-07T03:29:27;16.60;77.10
49821;DHT22;36893;52.520;13.450;2022-12-07T03:39:50;16.60;77.00
49821;DHT22;36893;52.520;13.450;2022-12-07T04:00:32;16.60;77.10
49821;DHT22;36893;52.520;13.450;2022-12-07T04:10:33;16.60;77.00
49821;DHT22;36893;52.520;13.450;2022-12-07T04:20:34;16.60;77.00
49821;DHT22;36893;52.520;13.450;2022-12-07T04:30:34;16.60;77.00
49821;DHT22;36893;52.520;13.450;2022-12-07T04:40:35;16.60;76.90
49821;DHT22;36893;52.520;13.450;2022-12-07T04:50:35;16.60;77.00
49821;DHT22;36893;52.520;13.450;2022-12-07T05:00:38;16.50;76.90
49821;DHT22;36893;52.520;13.450;2022-12-07T05:10:39;16.50;76.90
49821;DHT22;36893;52.520;13.450;2022-12-07T05:20:41;16.50;76.80
49821;DHT22;36893;52.520;13.450;2022-12-07T05:30:42;16.50;76.80
49821;DHT22;36893;52.520;13.450;2022-12-07T05:40:42;16.50;76.80
49821;DHT22;36893;52.520;13.450;2022-12-07T05:50:43;16.50;76.80
49821;DHT22;36893;52.520;13.450;2022-12-07T06:00:44;16.50;76.80
49821;DHT22;36893;52.520;13.450;2022-12-07T06:10:44;16.50;76.80
49821;DHT22;36893;52.520;13.450;2022-12-07T06:20:47;16.50;76.80
49821;DHT22;36893;52.520;13.450;2022-12-07T06:30:47;16.50;76.80
49821;DHT22;36893;52.520;13.450;2022-12-07T06:40:57;16.50;76.80
49821;DHT22;36893;52.520;13.450;2022-12-07T06:50:57;16.50;76.80
49821;DHT22;36893;52.520;13.450;2022-12-07T07:00:58;16.50;76.80
49821;DHT22;36893;52.520;13.450;2022-12-07T07:10:59;16.50;76.80
49821;DHT22;36893;52.520;13.450;2022-12-07T07:21:00;16.50;76.80
49821;DHT22;36893;52.520;13.450;2022-12-07T07:31:01;16.50;76.80
49821;DHT22;36893;52.520;13.450;2022-12-07T07:41:01;16.50;76.80
49821;DHT22;36893;52.520;13.450;2022-12-07T07:51:08;16.50;76.80
49821;DHT22;36893;52.520;13.450;2022-12-07T08:01:08;16.50;76.80
49821;DHT22;36893;52.520;13.450;2022-12-07T08:11:09;16.50;76.80
49821;DHT22;36893;52.520;13.450;2022-12-07T08:21:14;16.50;76.80
49821;DHT22;36893;52.520;13.450;2022-12-07T08:31:17;16.50;76.70
49821;DHT22;36893;52.520;13.450;2022-12-07T08:41:18;16.50;76.70
49821;DHT22;36893;52.520;13.450;2022-12-07T08:51:20;16.50;76.70
49821;DHT22;36893;52.520;13.450;2022-12-07T09:01:21;16.50;76.70
49821;DHT22;36893;52.520;13.450;2022-12-07T09:11:23;16.50;76.70
49821;DHT22;36893;52.520;13.450;2022-12-07T09:21:23;16.60;76.80
49821;DHT22;36893;52.520;13.450;2022-12-07T09:31:24;16.50;76.70
49821;DHT22;36893;52.520;13.450;2022-12-07T09:41:27;16.50;76.70
49821;DHT22;36893;52.520;13.450;2022-12-07T09:51:27;16.50;76.70
49821;DHT22;36893;52.520;13.450;2022-12-07T10:01:30;16.60;76.70
49821;DHT22;36893;52.520;13.450;2022-12-07T10:11:32;16.50;76.70
49821;DHT22;36893;52.520;13.450;2022-12-07T10:21:32;16.50;76.70
49821;DHT22;36893;52.520;13.450;2022-12-07T10:31:39;16.50;77.50
49821;DHT22;36893;52.520;13.450;2022-12-07T10:41:57;16.50;76.70
49821;DHT22;36893;52.520;13.450;2022-12-07T11:03:04;16.50;76.90
49821;DHT22;36893;52.520;13.450;2022-12-07T11:13:37;16.50;76.80
49821;DHT22;36893;52.520;13.450;2022-12-07T11:34:15;16.60;77.70
49821;DHT22;36893;52.520;13.450;2022-12-07T11:44:53;16.60;76.80
49821;DHT22;36893;52.520;13.450;2022-12-07T11:54:57;16.60;76.80
49821;DHT22;36893;52.520;13.450;2022-12-07T12:05:13;16.60;76.70
49821;DHT22;36893;52.520;13.450;2022-12-07T12:25:46;16.60;76.70
49821;DHT22;36893;52.520;13.450;2022-12-07T12:36:17;16.60;76.70
49821;DHT22;36893;52.520;13.450;2022-12-07T12:46:37;16.60;76.80
49821;DHT22;36893;52.520;13.450;2022-12-07T13:28:14;16.60;76.70
49821;DHT22;36893;52.520;13.450;2022-12-07T13:48:43;16.60;76.60
49821;DHT22;36893;52.520;13.450;2022-12-07T13:58:45;16.60;76.60
49821;DHT22;36893;52.520;13.450;2022-12-07T14:08:46;16.60;76.60
49821;DHT22;36893;52.520;13.450;2022-12-07T14:18:47;16.60;76.60
49821;DHT22;36893;52.520;13.450;2022-12-07T14:28:47;16.60;76.60
49821;DHT22;36893;52.520;13.450;2022-12-07T14:38:48;16.60;76.60
49821;DHT22;36893;52.520;13.450;2022-12-07T14:48:49;16.50;76.50
49821;DHT22;36893;52.520;13.450;2022-12-07T14:58:50;16.70;76.60
49821;DHT22;36893;52.520;13.450;2022-12-07T15:08:50;16.80;76.40
49821;DHT22;36893;52.520;13.450;2022-12-07T15:18:51;17.00;76.40
49821;DHT22;36893;52.520;13.450;2022-12-07T15:28:53;17.10;76.20
49821;DHT22;36893;52.520;13.450;2022-12-07T15:38:55;17.20;76.20
49821;DHT22;36893;52.520;13.450;2022-12-07T15:48:55;17.30;76.00
49821;DHT22;36893;52.520;13.450;2022-12-07T15:58:56;17.30;76.00
49821;DHT22;36893;52.520;13.450;2022-12-07T16:08:57;17.40;76.10
49821;DHT22;36893;52.520;13.450;2022-12-07T16:18:58;17.40;76.10
49821;DHT22;36893;52.520;13.450;2022-12-07T16:28:59;17.50;76.10
49821;DHT22;36893;52.520;13.450;2022-12-07T16:39:00;17.50;76.00
49821;DHT22;36893;52.520;13.450;2022-12-07T16:49:02;17.60;76.00
49821;DHT22;36893;52.520;13.450;2022-12-07T16:59:03;17.60;76.00
49821;DHT22;36893;52.520;13.450;2022-12-07T17:09:03;17.70;76.00
49821;DHT22;36893;52.520;13.450;2022-12-07T17:19:11;17.70;76.00
49821;DHT22;36893;52.520;13.450;2022-12-07T17:29:14;17.80;76.00
49821;DHT22;36893;52.520;13.450;2022-12-07T17:39:17;17.80;76.00
49821;DHT22;36893;52.520;13.450;2022-12-07T17:49:18;17.80;76.00
49821;DHT22;36893;52.520;13.450;2022-12-07T17:59:19;17.90;76.00
49821;DHT22;36893;52.520;13.450;2022-12-07T18:09:20;17.90;75.90
49821;DHT22;36893;52.520;13.450;2022-12-07T18:19:22;17.90;76.00
49821;DHT22;36893;52.520;13.450;2022-12-07T18:29:22;18.00;75.90
49821;DHT22;36893;52.520;13.450;2022-12-07T18:39:23;17.90;75.80
49821;DHT22;36893;52.520;13.450;2022-12-07T18:49:24;17.90;75.80
49821;DHT22;36893;52.520;13.450;2022-12-07T18:59:24;17.80;75.70
49821;DHT22;36893;52.520;13.450;2022-12-07T19:09:43;17.70;75.80
49821;DHT22;36893;52.520;13.450;2022-12-07T19:19:45;17.60;76.00
49821;DHT22;36893;52.520;13.450;2022-12-07T19:29:47;17.50;76.10
49821;DHT22;36893;52.520;13.450;2022-12-07T19:39:48;17.50;76.10
49821;DHT22;36893;52.520;13.450;2022-12-07T19:49:51;17.50;76.10
49821;DHT22;36893;52.520;13.450;2022-12-07T19:59:51;17.50;76.20
49821;DHT22;36893;52.520;13.450;2022-12-07T20:09:52;17.40;76.20
49821;DHT22;36893;52.520;13.450;2022-12-07T20:19:53;17.40;76.20
49821;DHT22;36893;52.520;13.450;2022-12-07T20:29:53;17.40;76.20
49821;DHT22;36893;52.520;13.450;2022-12-07T20:39:54;17.30;76.20
49821;DHT22;36893;52.520;13.450;2022-12-07T20:49:55;17.30;76.20
49821;DHT22;36893;52.520;13.450;2022-12-07T20:59:55;17.30;76.20
49821;DHT22;36893;52.520;13.450;2022-12-07T21:09:56;17.30;76.30
49821;DHT22;36893;52.520;13.450;2022-12-07T21:19:57;17.30;76.30
49821;DHT22;36893;52.520;13.450;2022-12-07T21:29:57;17.30;76.30
49821;DHT22;36893;52.520;13.450;2022-12-07T21:39:59;17.20;76.30
49821;DHT22;36893;52.520;13.450;2022-12-07T21:50:00;17.20;76.30
49821;DHT22;36893;52.520;13.450;2022-12-07T22:00:00;17.20;76.30
49821;DHT22;36893;52.520;13.450;2022-12-07T22:10:01;17.20;76.30
49821;DHT22;36893;52.520;13.450;2022-12-07T22:20:02;17.20;76.30
49821;DHT22;36893;52.520;13.450;2022-12-07T22:30:05;17.20;76.30
49821;DHT22;36893;52.520;13.450;2022-12-07T22:40:07;17.20;76.30
49821;DHT22;36893;52.520;13.450;2022-12-07T22:50:08;17.20;76.30
49821;DHT22;36893;52.520;13.450;2022-12-07T23:00:10;17.20;76.40
49821;DHT22;36893;52.520;13.450;2022-12-07T23:10:11;17.20;76.40
49821;DHT22;36893;52.520;13.450;2022-12-07T23:20:11;17.20;76.40
49821;DHT22;36893;52.520;13.450;2022-12-07T23:30:12;17.10;76.40
49821;DHT22;36893;52.520;13.450;2022-12-07T23:40:13;17.20;76.50
49821;DHT22;36893;52.520;13.450;2022-12-07T23:50:13;17.10;76.40
